Airfield :
LOGIN :

Register | Disclaimer

   EN    FR    IT 

 










Legend :    VFR   Marginal VFR   IFR   Intensive IFR   Very Intensive IFR
Visi :
Ceiling :
>= 8 km
>= 3000ft
5 to 8 km
1000 to 3000 ft
1500m to 5 km
500 to 1000 ft
800 to 1500m
200 to 500 ft
< 800m
< 200 ft
Symbols :   Thunderstorms  Fog  Heavy snow  Heavy precipitations  Wind > 20 kt
SIGMETs :     Misc.  Thunderstorms  Icing  Turbulence  Mountain Waves  Volcanic Ashes







- Airport Elevation : 46 ft
- IATA code : SNN


EINN - Shannon

CURRENT METAR :
  • 170300Z 16018KT 9999 FEW018 BKN090 10/07 Q1000 NOSIG

EXPIRED METARs :
  • 170230Z 16018KT 9999 FEW018 BKN090 10/07 Q1000 NOSIG
  • 170200Z 16014KT 9999 FEW017 BKN080 10/07 Q1001 NOSIG
  • 170130Z 16011KT 9999 FEW015 SCT022 BKN080 10/08 Q1001 NOSIG
  • 170100Z 17009KT 9999 FEW012 BKN017 BKN024 11/09 Q1001 NOSIG
  • 170030Z 17010KT 9999 SCT012 BKN016 BKN021 11/09 Q1002 NOSIG

TAF TAF EINN
Valid from the 17 at 00:00 until the 18 at 00:00 UTC


162300Z 1700/1724 16015KT 9999 FEW018 OVC025
TEMPO 1700/1703 16017G27KT
TEMPO 1700/1707 -RA BKN014
PROB30
TEMPO 1700/1703 4000 RA BKN008
BECMG 1705/1707 19014KT
BECMG 1710/1713 20015G25KT
TEMPO 1712/1723 -SHRA BKN014 FEW018CB
TEMPO 1716/1724 21020G35KT
No reported NOTAMs for that airfield.



MET'MAP, your aeronautical weather chart ! - Copyright ORBIFLY December 2007 - Disclaimer

ORBIFLY MET'MAP TEAM :

Programming & Development : Alexandra Zaïnal
Concept & Development : Baudouin d'Aumeries
Co-Development & Prog : Marc-Olivier Méhu
Technical & hardware support : Manuel Goepfert

Contact : metmap@orbifly.com




SOURCES & CREDITS :

   NOAA